Arborfield, United Kingdom
Current Conditions -  °F | °C
As of 9:20 PM on Tuesday 27 Jan 2015 (Local Time) from EGLF Reporting Station
Scattered Clouds Scattered Clouds  
Wind Chill: 39°   Ceiling: Unl
Heat Index: 45°   Visibility: 6mi
Dew Point: 37°   Wind: 10mph
Humidity: 76%   Direction: 240°WSW
Pressure: 30.18"   Gusts: NA
Location:  51.4°N, 0.92°W
Report Text: EGLF 272120Z 24009KT 9999 SCT022 07/03 Q1022
Loading
Personal Weather Stations






























Interactive Weather Map New forecast layout! Learn more

10-Day Weather Forecast

Advertisements
Track Severe Weather on mobile